Time;durP1;ratioP1;P1;durP2;ratioP2;P2;SDS_P1;SDS_P2;PMS_P1;PMS_P2;Temp;Humidity;BMP_temperature;BMP_pressure;BME280_temperature;BME280_humidity;BME280_pressure;Samples;Min_cycle;Max_cycle;Signal;HPM_P1;HPM_P2
2021/04/29 00:00:09;;;;;;;29.60;10.93;;;;;;;5.49;60.30;100238.94;4420559;32;20095;-73
2021/04/29 00:02:35;;;;;;;22.98;10.50;;;;;;;5.50;60.71;100242.53;4421712;32;20062;-72
2021/04/29 00:05:01;;;;;;;23.65;10.57;;;;;;;5.49;60.65;100236.13;4405266;32;20105;-72
2021/04/29 00:07:27;;;;;;;21.27;10.20;;;;;;;5.47;60.66;100232.19;4417980;32;20096;-72
2021/04/29 00:09:52;;;;;;;21.42;10.73;;;;;;;5.48;60.79;100230.97;4406613;32;20029;-73
2021/04/29 00:12:18;;;;;;;20.88;10.32;;;;;;;5.50;60.61;100226.56;4419801;32;20095;-72
2021/04/29 00:14:44;;;;;;;23.33;10.60;;;;;;;5.46;60.88;100234.19;4418287;32;20101;-72
2021/04/29 00:17:10;;;;;;;18.02;9.82;;;;;;;5.57;60.54;100234.84;4406368;32;20406;-72
2021/04/29 00:19:36;;;;;;;22.55;10.15;;;;;;;5.47;60.53;100233.00;4415858;32;20088;-72
2021/04/29 00:22:02;;;;;;;23.12;10.32;;;;;;;5.41;61.15;100228.28;4421828;32;20068;-72
2021/04/29 00:24:28;;;;;;;23.50;10.88;;;;;;;5.49;61.00;100227.00;4419006;32;20034;-72
2021/04/29 00:26:54;;;;;;;20.40;10.95;;;;;;;5.46;61.23;100223.00;4421538;32;20101;-72
2021/04/29 00:29:19;;;;;;;30.08;11.30;;;;;;;5.47;61.15;100226.59;4419622;32;20038;-72
2021/04/29 00:31:45;;;;;;;25.10;11.85;;;;;;;5.46;61.48;100225.03;4420073;32;20026;-72
2021/04/29 00:34:11;;;;;;;27.58;11.45;;;;;;;5.49;61.30;100232.56;4419005;32;20152;-72
2021/04/29 00:36:37;;;;;;;23.02;9.68;;;;;;;5.45;61.34;100224.22;4420894;32;20077;-72
2021/04/29 00:39:03;;;;;;;19.23;9.77;;;;;;;5.78;60.21;100223.44;4425532;32;20484;-72
2021/04/29 00:41:29;;;;;;;21.60;10.27;;;;;;;5.75;60.37;100223.47;4421706;32;20547;-72
2021/04/29 00:43:56;;;;;;;36.67;15.25;;;;;;;5.55;61.02;100223.31;4421241;32;20037;-72
2021/04/29 00:46:21;;;;;;;50.33;23.42;;;;;;;5.53;61.10;100219.34;4421404;32;20073;-72
2021/04/29 00:48:48;;;;;;;26.98;10.85;;;;;;;5.54;60.94;100223.72;4424865;32;20062;-72
2021/04/29 00:51:14;;;;;;;20.77;10.90;;;;;;;5.59;60.69;100214.91;4422532;32;20034;-72
2021/04/29 00:53:43;;;;;;;21.62;10.68;;;;;;;5.62;60.76;100214.06;4419929;32;20108;-72
2021/04/29 00:56:10;;;;;;;18.48;10.43;;;;;;;5.74;60.43;100221.91;4420784;32;20041;-72
2021/04/29 00:58:36;;;;;;;17.83;8.80;;;;;;;5.78;60.56;100217.03;4419067;32;20398;-72
2021/04/29 01:01:03;;;;;;;17.35;9.30;;;;;;;5.82;60.33;100213.03;4419244;32;20098;-74
2021/04/29 01:03:36;;;;;;;19.37;9.70;;;;;;;6.19;59.41;100209.31;4419821;32;20401;-72
2021/04/29 01:06:13;;;;;;;19.50;10.77;;;;;;;6.01;59.87;100209.56;4420402;32;20034;-72
2021/04/29 01:08:49;;;;;;;21.87;9.77;;;;;;;5.87;60.57;100204.16;4421756;32;20082;-72
2021/04/29 01:11:20;;;;;;;17.52;9.25;;;;;;;5.77;61.25;100213.44;4422285;32;20069;-72
2021/04/29 01:13:53;;;;;;;19.52;10.05;;;;;;;5.74;61.34;100208.72;4420354;32;20105;-72
2021/04/29 01:16:22;;;;;;;15.88;10.02;;;;;;;5.74;61.40;100205.16;4416125;32;20103;-72
2021/04/29 01:18:49;;;;;;;26.62;9.77;;;;;;;5.65;61.84;100205.63;4421238;32;20072;-72
2021/04/29 01:21:17;;;;;;;15.55;9.30;;;;;;;5.58;62.25;100213.31;4425944;32;20332;-73
2021/04/29 01:29:08;;;;;;;17.48;8.93;;;;;;;6.29;61.18;100213.16;3935598;32;15023220;-73
2021/04/29 01:31:36;;;;;;;18.05;9.57;;;;;;;6.29;61.18;100213.16;4363365;32;20039;-73
2021/04/29 01:34:05;;;;;;;18.92;9.27;;;;;;;5.89;61.76;100217.72;4380948;32;20066;-72
2021/04/29 01:36:33;;;;;;;21.25;9.32;;;;;;;5.54;62.93;100209.78;4380232;32;20073;-73
2021/04/29 01:39:03;;;;;;;18.33;9.88;;;;;;;5.48;63.28;100211.44;4383132;32;20042;-72
2021/04/29 01:41:29;;;;;;;15.60;9.40;;;;;;;5.36;64.12;100206.41;4382393;32;20124;-71
2021/04/29 01:43:56;;;;;;;19.83;9.07;;;;;;;5.26;64.63;100208.12;4381871;32;20057;-74
2021/04/29 01:46:23;;;;;;;18.35;9.38;;;;;;;5.23;64.67;100208.94;4378181;32;20128;-71
2021/04/29 01:48:50;;;;;;;21.02;10.10;;;;;;;5.20;65.12;100209.78;4382666;32;20073;-71
2021/04/29 01:51:17;;;;;;;23.70;10.77;;;;;;;5.25;65.22;100211.31;4379835;32;20084;-72
2021/04/29 01:53:44;;;;;;;26.92;10.13;;;;;;;5.21;66.08;100208.56;4380720;32;20442;-72
2021/04/29 01:56:10;;;;;;;18.25;9.98;;;;;;;5.24;66.28;100207.72;4379950;32;20104;-72
2021/04/29 01:58:35;;;;;;;17.80;8.77;;;;;;;5.28;66.94;100205.69;4367444;32;20104;-72
2021/04/29 02:01:01;;;;;;;17.52;9.10;;;;;;;5.35;67.31;100213.19;4377789;32;20149;-73
2021/04/29 02:03:27;;;;;;;16.25;8.10;;;;;;;5.38;67.61;100206.78;4364637;32;20414;-72
2021/04/29 02:05:55;;;;;;;20.00;8.77;;;;;;;5.46;67.55;100209.06;4364630;32;20034;-72
2021/04/29 02:08:21;;;;;;;19.60;7.85;;;;;;;5.53;67.54;100208.97;4364724;32;20102;-73
2021/04/29 02:10:51;;;;;;;17.08;7.62;;;;;;;5.58;67.90;100211.31;4367339;32;20332;-72
2021/04/29 02:13:18;;;;;;;15.38;7.20;;;;;;;5.72;67.53;100201.97;4363916;32;20075;-72
2021/04/29 02:15:49;;;;;;;19.65;6.40;;;;;;;5.79;68.00;100204.66;4363414;32;20062;-72
2021/04/29 02:18:18;;;;;;;11.75;6.40;;;;;;;5.92;68.07;100205.69;4366412;32;20133;-72
2021/04/29 02:20:46;;;;;;;13.23;6.40;;;;;;;5.98;68.04;100212.41;4367858;32;20141;-73
2021/04/29 02:23:14;;;;;;;10.77;5.87;;;;;;;5.96;68.47;100200.88;4352476;32;20407;-72
2021/04/29 02:25:42;;;;;;;11.90;5.50;;;;;;;6.06;68.46;100203.53;4364588;32;20124;-73
2021/04/29 02:28:08;;;;;;;15.90;6.32;;;;;;;6.51;66.75;100206.81;4350524;32;20106;-72
2021/04/29 02:30:34;;;;;;;17.17;5.90;;;;;;;6.20;67.55;100201.72;4351145;32;20035;-73
2021/04/29 02:33:01;;;;;;;11.30;6.05;;;;;;;6.10;68.17;100201.47;4351701;32;20089;-72
2021/04/29 02:35:27;;;;;;;16.02;6.45;;;;;;;6.10;68.22;100203.44;4351552;32;20111;-72
2021/04/29 02:37:54;;;;;;;14.73;6.10;;;;;;;6.05;68.52;100210.31;4352109;32;20087;-72
2021/04/29 02:40:22;;;;;;;15.05;6.22;;;;;;;6.06;68.45;100199.94;4339199;32;20047;-72
2021/04/29 02:42:48;;;;;;;10.93;6.25;;;;;;;6.03;68.79;100204.38;4340877;32;20463;-72
2021/04/29 02:45:16;;;;;;;18.58;6.93;;;;;;;6.01;68.72;100198.41;4339590;32;20412;-72
2021/04/29 02:47:46;;;;;;;9.57;5.40;;;;;;;5.99;68.81;100200.81;4338278;32;20074;-72
2021/04/29 02:50:15;;;;;;;11.05;5.40;;;;;;;6.03;69.29;100198.78;4340334;32;20099;-73
2021/04/29 02:52:43;;;;;;;10.98;5.57;;;;;;;6.04;68.80;100193.97;4344860;32;20133;-73
2021/04/29 02:55:10;;;;;;;11.52;5.40;;;;;;;6.05;69.10;100201.16;4339874;32;20093;-73
2021/04/29 02:57:36;;;;;;;12.82;5.55;;;;;;;6.23;68.35;100192.50;4338302;32;20075;-72
2021/04/29 03:00:05;;;;;;;8.52;5.28;;;;;;;6.11;69.13;100197.44;4339119;32;20364;-72
2021/04/29 03:02:31;;;;;;;11.05;5.43;;;;;;;6.28;68.68;100194.81;4341143;32;20075;-72
2021/04/29 03:04:57;;;;;;;13.50;5.55;;;;;;;6.34;68.51;100193.13;4341135;32;20044;-73
2021/04/29 03:07:23;;;;;;;8.75;5.12;;;;;;;6.46;68.16;100193.31;4343635;32;20338;-72
2021/04/29 03:09:48;;;;;;;9.70;4.65;;;;;;;6.51;67.83;100183.66;4342183;32;20102;-72
2021/04/29 03:12:14;;;;;;;12.32;5.25;;;;;;;6.80;66.99;100193.94;4337784;32;20044;-72
2021/04/29 03:14:40;;;;;;;10.45;5.35;;;;;;;6.73;67.10;100188.47;4341021;32;20725;-73
2021/04/29 03:17:05;;;;;;;13.23;5.53;;;;;;;6.77;67.11;100182.81;4343725;32;20083;-72
2021/04/29 03:19:31;;;;;;;8.23;4.87;;;;;;;7.12;65.94;100187.78;4341607;32;20151;-73
2021/04/29 03:21:57;;;;;;;13.20;5.18;;;;;;;7.17;65.25;100185.25;4337581;32;20048;-72
2021/04/29 03:24:22;;;;;;;9.93;5.10;;;;;;;7.32;64.96;100194.16;4337585;32;20425;-72
2021/04/29 03:26:48;;;;;;;8.05;5.15;;;;;;;7.30;64.62;100182.63;4341091;32;20036;-73
2021/04/29 03:29:13;;;;;;;11.18;5.15;;;;;;;7.31;64.47;100182.19;4355663;32;20062;-72
2021/04/29 03:31:39;;;;;;;11.68;4.75;;;;;;;7.27;64.67;100189.09;4353932;32;20055;-72
2021/04/29 03:34:07;;;;;;;9.50;4.90;;;;;;;7.24;64.81;100184.34;4354898;32;20625;-72
2021/04/29 03:36:34;;;;;;;13.70;5.78;;;;;;;7.17;64.87;100188.06;4338880;32;20044;-72
2021/04/29 03:38:59;;;;;;;17.42;5.37;;;;;;;7.14;65.08;100188.12;4354875;32;20024;-72
2021/04/29 03:41:25;;;;;;;12.90;5.03;;;;;;;7.08;65.24;100190.63;4353831;32;20031;-73
2021/04/29 03:43:50;;;;;;;10.57;5.37;;;;;;;6.94;65.66;100184.50;4352268;32;20043;-73
2021/04/29 03:46:16;;;;;;;8.45;4.90;;;;;;;6.94;65.62;100187.31;4354316;32;20027;-72
2021/04/29 03:48:42;;;;;;;9.00;4.95;;;;;;;6.96;65.39;100191.25;4355620;32;20042;-73
2021/04/29 03:51:08;;;;;;;10.77;5.20;;;;;;;6.93;65.55;100188.53;4353086;32;20102;-72
2021/04/29 03:53:33;;;;;;;11.65;5.03;;;;;;;6.84;65.94;100188.28;4353583;32;20529;-73
2021/04/29 03:55:59;;;;;;;8.88;4.80;;;;;;;6.82;65.88;100187.91;4354885;32;20082;-72
2021/04/29 03:58:25;;;;;;;7.25;4.32;;;;;;;6.72;66.19;100195.25;4355486;32;20109;-72
2021/04/29 04:00:51;;;;;;;11.60;4.43;;;;;;;6.61;66.88;100189.09;4356957;32;20055;-72
2021/04/29 04:03:17;;;;;;;8.93;4.65;;;;;;;6.66;66.55;100177.41;4355413;32;20113;-73
2021/04/29 04:05:42;;;;;;;9.05;4.68;;;;;;;6.57;66.89;100185.56;4353432;32;20106;-72
2021/04/29 04:08:08;;;;;;;10.07;4.85;;;;;;;6.20;68.21;100182.16;4352719;32;20141;-72
2021/04/29 04:10:34;;;;;;;8.15;4.75;;;;;;;6.06;68.70;100177.59;4351121;32;20036;-72
2021/04/29 04:13:00;;;;;;;11.07;4.72;;;;;;;6.02;69.09;100176.84;4356222;32;20085;-72
2021/04/29 04:15:26;;;;;;;9.20;4.97;;;;;;;5.92;69.62;100184.16;4353201;32;20483;-72
2021/04/29 04:17:51;;;;;;;8.65;4.50;;;;;;;5.82;69.70;100173.94;4350936;32;20039;-72
2021/04/29 04:20:18;;;;;;;12.27;5.22;;;;;;;5.84;69.85;100187.47;4353559;32;20047;-73
2021/04/29 04:22:43;;;;;;;9.13;4.55;;;;;;;5.81;69.94;100191.91;4351762;32;20083;-72
2021/04/29 04:25:11;;;;;;;7.97;4.35;;;;;;;5.75;70.56;100199.16;4353182;32;20575;-72
2021/04/29 04:27:36;;;;;;;10.32;4.25;;;;;;;5.83;70.59;100191.50;4356173;32;20098;-72
2021/04/29 04:30:04;;;;;;;10.27;4.22;;;;;;;5.99;69.88;100206.41;4355618;32;20043;-73
2021/04/29 04:32:29;;;;;;;7.80;4.20;;;;;;;5.76;70.60;100199.91;4352820;32;20053;-72
2021/04/29 04:34:55;;;;;;;11.20;4.32;;;;;;;5.74;70.62;100199.56;4352817;32;20201;-72
2021/04/29 04:37:22;;;;;;;8.35;4.00;;;;;;;5.65;71.04;100205.63;4353587;32;20038;-72
2021/04/29 04:39:47;;;;;;;8.02;4.35;;;;;;;5.69;71.12;100200.00;4354654;32;20162;-72
2021/04/29 04:42:13;;;;;;;12.65;4.35;;;;;;;5.78;71.32;100198.31;4351830;32;20019;-73
2021/04/29 04:44:38;;;;;;;7.90;4.37;;;;;;;5.69;71.41;100203.59;4352162;32;20440;-73
2021/04/29 04:47:04;;;;;;;7.47;3.62;;;;;;;5.70;71.50;100215.53;4353252;32;20061;-73
2021/04/29 04:49:30;;;;;;;6.78;3.78;;;;;;;5.71;71.68;100209.53;4355469;32;20087;-73
2021/04/29 04:51:55;;;;;;;6.12;3.42;;;;;;;5.71;71.87;100206.75;4354074;32;20086;-72
2021/04/29 04:54:22;;;;;;;7.62;3.50;;;;;;;5.77;71.48;100210.66;4351299;32;20125;-73
2021/04/29 04:56:49;;;;;;;6.12;3.65;;;;;;;5.81;71.59;100210.63;4352930;32;20521;-73
2021/04/29 04:59:14;;;;;;;9.50;3.95;;;;;;;5.84;71.65;100209.81;4355054;32;20117;-73
2021/04/29 05:01:40;;;;;;;7.45;3.47;;;;;;;5.79;71.75;100199.06;4350939;32;20039;-73
2021/04/29 05:04:07;;;;;;;7.87;3.97;;;;;;;5.90;71.50;100214.50;4355692;32;20097;-72
2021/04/29 05:06:35;;;;;;;13.32;4.35;;;;;;;5.91;71.55;100218.91;4351202;32;20082;-73
2021/04/29 05:09:02;;;;;;;6.03;3.50;;;;;;;6.02;71.42;100215.97;4352400;32;20079;-73
2021/04/29 05:11:28;;;;;;;5.15;3.58;;;;;;;6.01;71.55;100214.34;4354232;32;20499;-73
2021/04/29 05:13:54;;;;;;;5.97;3.40;;;;;;;6.08;71.21;100219.87;4355375;32;20052;-72
2021/04/29 05:16:20;;;;;;;13.13;3.85;;;;;;;6.14;70.95;100218.94;4353507;32;20078;-72
2021/04/29 05:18:45;;;;;;;10.80;3.85;;;;;;;6.18;70.70;100223.69;4355684;32;20036;-73
2021/04/29 05:21:11;;;;;;;7.07;3.60;;;;;;;6.28;69.91;100219.94;4353065;32;20058;-72
2021/04/29 05:23:36;;;;;;;7.28;3.87;;;;;;;6.30;70.29;100223.91;4352565;32;20479;-73
2021/04/29 05:26:02;;;;;;;6.40;3.78;;;;;;;6.36;70.35;100225.03;4354652;32;20085;-73
2021/04/29 05:28:28;;;;;;;5.18;3.40;;;;;;;6.44;70.06;100229.28;4354544;32;20062;-73
2021/04/29 05:30:54;;;;;;;7.72;3.80;;;;;;;6.58;69.77;100231.06;4354466;32;20085;-73
2021/04/29 05:33:19;;;;;;;6.43;3.25;;;;;;;6.71;69.27;100232.84;4354649;32;20082;-73
2021/04/29 05:35:45;;;;;;;7.45;3.67;;;;;;;6.79;68.81;100237.13;4350918;32;20043;-73
2021/04/29 05:38:10;;;;;;;4.57;2.92;;;;;;;6.93;67.96;100233.28;4353552;32;20482;-73
2021/04/29 05:40:36;;;;;;;8.90;3.62;;;;;;;7.03;67.20;100235.09;4354469;32;20102;-73
2021/04/29 05:43:02;;;;;;;7.18;3.70;;;;;;;7.39;65.78;100242.41;4351302;32;20054;-73
2021/04/29 05:45:27;;;;;;;5.95;3.30;;;;;;;7.57;65.20;100236.44;4352926;32;20098;-73
2021/04/29 05:47:53;;;;;;;7.35;2.90;;;;;;;7.28;66.08;100241.03;4354451;32;20077;-73
2021/04/29 05:50:19;;;;;;;7.32;3.75;;;;;;;7.54;65.44;100234.50;4352791;32;20085;-74
2021/04/29 05:52:44;;;;;;;6.85;3.35;;;;;;;7.42;66.02;100232.34;4353809;32;20043;-73
2021/04/29 05:55:10;;;;;;;5.62;3.35;;;;;;;7.49;65.60;100232.22;4348238;32;20415;-73
2021/04/29 05:57:36;;;;;;;7.30;3.17;;;;;;;8.00;64.20;100239.94;4352700;32;20128;-73
2021/04/29 06:00:05;;;;;;;7.97;3.37;;;;;;;7.83;64.79;100230.69;4353811;32;20051;-74
2021/04/29 06:02:31;;;;;;;8.88;3.60;;;;;;;7.90;65.02;100236.16;4351395;32;20136;-72
2021/04/29 06:04:57;;;;;;;8.48;3.37;;;;;;;7.93;64.06;100237.31;4348881;32;20182;-72
2021/04/29 06:07:22;;;;;;;8.93;3.35;;;;;;;8.28;63.38;100236.53;4349364;32;20055;-72
2021/04/29 06:09:48;;;;;;;7.32;2.83;;;;;;;8.62;62.38;100239.75;4350984;32;20070;-72
2021/04/29 06:12:14;;;;;;;7.60;3.40;;;;;;;8.65;61.73;100236.06;4350153;32;20140;-74
2021/04/29 06:14:40;;;;;;;9.30;2.92;;;;;;;8.62;61.44;100233.37;4353221;32;20097;-73
2021/04/29 06:17:06;;;;;;;14.50;3.37;;;;;;;8.48;62.02;100240.09;4354221;32;20142;-72
2021/04/29 06:19:32;;;;;;;7.78;3.20;;;;;;;8.64;61.86;100244.91;4357750;32;20047;-73
2021/04/29 06:21:58;;;;;;;7.80;3.08;;;;;;;8.55;61.92;100239.12;4355173;32;20070;-73
2021/04/29 06:24:24;;;;;;;7.60;2.80;;;;;;;8.65;61.55;100243.72;4353255;32;20039;-73
2021/04/29 06:26:50;;;;;;;12.18;3.55;;;;;;;8.68;61.74;100240.81;4351815;32;20435;-73
2021/04/29 06:29:16;;;;;;;9.52;3.42;;;;;;;8.82;60.94;100240.47;4352040;32;20075;-72
2021/04/29 06:31:44;;;;;;;6.53;2.92;;;;;;;8.87;61.14;100245.53;4354524;32;20070;-74
2021/04/29 06:34:09;;;;;;;12.73;3.58;;;;;;;9.18;60.20;100246.72;4350373;32;20074;-75
2021/04/29 06:36:35;;;;;;;10.20;3.08;;;;;;;9.42;58.95;100248.09;4351949;32;20086;-73
2021/04/29 06:39:01;;;;;;;6.47;2.60;;;;;;;9.76;58.65;100239.91;4347179;32;20126;-75
2021/04/29 06:41:26;;;;;;;17.45;3.20;;;;;;;9.70;57.92;100240.91;4344758;32;20095;-75
2021/04/29 06:43:53;;;;;;;8.35;2.70;;;;;;;9.95;57.87;100243.78;4347522;32;20458;-75
2021/04/29 06:46:18;;;;;;;9.20;3.17;;;;;;;9.96;57.02;100248.16;4344763;32;20098;-74
2021/04/29 06:48:44;;;;;;;8.98;3.22;;;;;;;10.13;57.23;100249.72;4347687;32;20039;-75
2021/04/29 06:51:10;;;;;;;7.97;3.20;;;;;;;10.18;57.42;100249.12;4337438;32;20090;-74
2021/04/29 06:53:36;;;;;;;12.10;3.25;;;;;;;10.13;56.26;100247.66;4350093;32;20026;-76
2021/04/29 06:56:02;;;;;;;21.90;6.57;;;;;;;10.23;56.25;100265.47;4346006;32;20074;-75
2021/04/29 06:58:28;;;;;;;10.25;2.78;;;;;;;10.27;57.06;100262.56;4347163;32;20117;-76
2021/04/29 07:00:54;;;;;;;5.45;2.58;;;;;;;10.51;56.02;100263.78;4346926;32;20031;-76
2021/04/29 07:03:21;;;;;;;8.55;2.70;;;;;;;10.41;55.93;100264.91;4341931;32;20109;-76
2021/04/29 07:05:47;;;;;;;9.95;2.65;;;;;;;10.32;55.74;100265.59;4346509;32;20099;-77
2021/04/29 07:08:14;;;;;;;5.72;2.47;;;;;;;10.63;55.76;100265.81;4347057;32;20095;-74
2021/04/29 07:10:40;;;;;;;12.45;3.03;;;;;;;10.69;55.45;100275.28;4347699;32;20105;-76
2021/04/29 07:13:06;;;;;;;10.10;3.00;;;;;;;10.56;55.64;100260.44;4341432;32;20113;-76
2021/04/29 07:15:32;;;;;;;11.18;3.22;;;;;;;10.83;54.77;100261.53;4342750;32;20098;-76
2021/04/29 07:18:00;;;;;;;6.68;2.95;;;;;;;11.02;54.46;100265.34;4346761;32;20102;-75
2021/04/29 07:20:26;;;;;;;15.48;3.58;;;;;;;11.08;54.39;100271.97;4348200;32;20146;-76
2021/04/29 07:22:52;;;;;;;18.05;3.10;;;;;;;11.24;53.80;100278.25;4344319;32;20105;-76
2021/04/29 07:25:18;;;;;;;6.90;2.28;;;;;;;11.32;53.41;100276.00;4339767;32;20071;-75
2021/04/29 07:27:44;;;;;;;13.25;2.72;;;;;;;11.22;52.99;100268.66;4343298;32;20055;-76
2021/04/29 07:30:10;;;;;;;6.05;2.08;;;;;;;11.12;54.14;100272.66;4343062;32;20128;-75
2021/04/29 07:32:38;;;;;;;9.25;2.67;;;;;;;10.20;55.74;100274.00;4332245;32;20501;-75
2021/04/29 07:35:05;;;;;;;4.95;2.62;;;;;;;10.18;56.48;100277.25;4343570;32;20054;-75
2021/04/29 07:37:31;;;;;;;7.25;2.65;;;;;;;10.39;56.05;100275.81;4344942;32;20047;-74
2021/04/29 07:39:57;;;;;;;8.30;2.75;;;;;;;10.40;56.91;100275.38;4342613;32;20170;-75
2021/04/29 07:42:22;;;;;;;10.75;2.97;;;;;;;10.53;56.06;100278.19;4347172;32;20047;-74
2021/04/29 07:44:48;;;;;;;5.47;1.92;;;;;;;10.51;55.44;100275.03;4345771;32;20141;-75
2021/04/29 07:47:14;;;;;;;9.15;2.42;;;;;;;10.08;56.30;100276.34;4346155;32;20099;-77
2021/04/29 07:49:40;;;;;;;7.53;2.45;;;;;;;10.20;56.78;100280.41;4345816;32;20533;-75
2021/04/29 07:52:06;;;;;;;10.15;2.78;;;;;;;10.08;56.82;100284.78;4346122;32;20110;-76
2021/04/29 07:54:32;;;;;;;7.78;2.08;;;;;;;10.12;57.12;100283.88;4344920;32;20495;-77
2021/04/29 07:56:58;;;;;;;6.87;2.37;;;;;;;10.16;57.18;100290.19;4346499;32;20692;-76
2021/04/29 07:59:24;;;;;;;8.43;2.45;;;;;;;10.22;57.23;100286.38;4346886;32;20055;-76
2021/04/29 08:01:50;;;;;;;8.48;2.40;;;;;;;10.25;57.55;100295.94;4348101;32;20465;-75
2021/04/29 08:04:16;;;;;;;6.85;2.10;;;;;;;10.46;57.70;100298.91;4345286;32;20083;-75
2021/04/29 08:06:42;;;;;;;3.47;2.22;;;;;;;10.49;56.81;100300.03;4346870;32;20102;-77
2021/04/29 08:09:08;;;;;;;4.75;2.15;;;;;;;10.47;56.44;100291.25;4345341;32;20075;-77
2021/04/29 08:11:34;;;;;;;4.90;2.30;;;;;;;10.68;55.65;100304.66;4345633;32;20501;-74
2021/04/29 08:14:00;;;;;;;5.62;2.40;;;;;;;10.72;55.47;100299.69;4346620;32;20079;-76
2021/04/29 08:16:25;;;;;;;3.92;1.73;;;;;;;10.76;55.79;100303.19;4346331;32;20082;-76
2021/04/29 08:18:51;;;;;;;9.90;3.20;;;;;;;10.47;55.48;100302.50;4333552;32;20229;-75
2021/04/29 08:21:17;;;;;;;13.57;2.67;;;;;;;10.49;56.02;100312.06;4347863;32;20096;-77
2021/04/29 08:23:43;;;;;;;17.73;2.70;;;;;;;10.70;55.58;100308.59;4347104;32;20079;-77
2021/04/29 08:26:08;;;;;;;5.87;2.53;;;;;;;10.68;55.09;100299.03;4337244;32;20067;-76
2021/04/29 08:28:34;;;;;;;8.18;2.53;;;;;;;10.44;55.59;100295.75;4347583;32;20087;-75
2021/04/29 08:31:00;;;;;;;12.52;3.30;;;;;;;10.70;55.11;100311.41;4348363;32;20092;-74
2021/04/29 08:33:25;;;;;;;9.30;2.42;;;;;;;11.11;53.83;100311.28;4346361;32;20073;-75
2021/04/29 08:35:51;;;;;;;4.18;2.10;;;;;;;11.51;52.92;100308.72;4347586;32;20031;-76
2021/04/29 08:38:17;;;;;;;10.48;2.30;;;;;;;11.47;52.11;100308.03;4346833;32;20499;-78
2021/04/29 08:40:43;;;;;;;11.73;2.50;;;;;;;11.81;51.67;100303.22;4344508;32;20039;-77
2021/04/29 08:43:09;;;;;;;10.15;2.50;;;;;;;12.06;51.20;100303.09;4347733;32;20105;-76
2021/04/29 08:45:35;;;;;;;6.93;2.50;;;;;;;12.37;49.55;100296.72;4347856;32;20203;-76
2021/04/29 08:48:02;;;;;;;7.43;2.35;;;;;;;13.03;47.96;100311.03;4344512;32;20109;-77
2021/04/29 08:50:30;;;;;;;6.35;2.50;;;;;;;12.79;47.66;100309.97;4346007;32;20866;-76
2021/04/29 08:52:55;;;;;;;7.05;2.90;;;;;;;12.77;47.25;100309.66;4345091;32;21504;-77
2021/04/29 08:55:24;;;;;;;11.20;2.78;;;;;;;12.01;48.20;100303.72;4346954;32;20106;-74
2021/04/29 08:57:50;;;;;;;9.27;3.00;;;;;;;11.92;48.49;100308.47;4346591;32;20538;-77
2021/04/29 09:00:18;;;;;;;7.47;2.58;;;;;;;12.21;48.68;100308.22;4345855;32;20624;-77
2021/04/29 09:02:44;;;;;;;9.90;2.20;;;;;;;12.30;48.38;100300.59;4347448;32;20153;-78
2021/04/29 09:07:57;;;;;;;8.85;2.15;;;;;;;14.12;44.20;100314.00;3986259;32;15026972;-76
2021/04/29 09:13:23;;;;;;;7.05;2.83;;;;;;;13.64;44.17;100307.22;3972555;32;15028737;-75
2021/04/29 09:15:50;;;;;;;8.55;2.40;;;;;;;13.03;44.75;100315.88;4422700;32;20073;-76
2021/04/29 09:18:18;;;;;;;5.95;2.20;;;;;;;13.10;44.52;100310.72;4427506;32;20065;-76
2021/04/29 09:20:53;;;;;;;13.62;2.87;;;;;;;13.07;44.32;100310.91;4425766;32;20088;-74
2021/04/29 09:23:24;;;;;;;8.82;2.20;;;;;;;13.13;44.98;100315.44;4423906;32;20103;-76
2021/04/29 09:26:00;;;;;;;7.57;2.65;;;;;;;13.47;43.57;100303.91;4422361;32;20822;-76
2021/04/29 09:31:15;;;;;;;9.45;2.97;;;;;;;14.07;41.96;100319.03;3978675;32;15024999;-76
2021/04/29 09:33:44;;;;;;;8.77;2.55;;;;;;;14.12;41.88;100319.66;4434228;32;20045;-77
2021/04/29 09:36:29;;;;;;;9.45;2.62;;;;;;;14.05;41.88;100326.41;4432112;32;20077;-76
2021/04/29 09:41:37;;;;;;;6.07;2.37;;;;;;;16.40;38.07;100333.75;3944989;32;15025648;-76
2021/04/29 09:44:07;;;;;;;7.62;2.20;;;;;;;16.40;38.07;100333.75;4390147;32;20068;-74
2021/04/29 09:46:50;;;;;;;6.65;2.22;;;;;;;16.35;37.07;100326.69;4388947;32;20571;-76
2021/04/29 09:51:58;;;;;;;5.30;2.45;;;;;;;15.19;42.57;100324.22;3972669;32;15034019;-77
2021/04/29 09:59:47;;;;;;;6.65;2.92;;;;;;;13.72;50.24;100337.56;3963206;32;15022249;-76
2021/04/29 10:02:16;;;;;;;28.98;12.77;;;;;;;13.28;51.67;100336.22;4405765;32;20037;-77
2021/04/29 10:04:43;;;;;;;6.18;3.37;;;;;;;13.37;52.38;100339.06;4403977;32;20060;-77
2021/04/29 10:07:09;;;;;;;14.07;4.55;;;;;;;13.57;50.50;100342.25;4401188;32;20061;-75
2021/04/29 10:09:36;;;;;;;9.77;2.90;;;;;;;13.79;49.23;100337.25;4399579;32;20050;-77
2021/04/29 10:17:22;;;;;;;6.05;2.47;;;;;;;14.89;41.98;100324.53;3985767;32;15027410;-75
2021/04/29 10:19:51;;;;;;;12.63;2.72;;;;;;;14.89;41.98;100324.53;4435000;32;20084;-76
2021/04/29 10:22:18;;;;;;;6.47;2.83;;;;;;;14.38;43.09;100333.00;4434396;32;20383;-75
2021/04/29 10:24:45;;;;;;;13.88;3.22;;;;;;;14.84;43.18;100331.63;4432821;32;20451;-77
2021/04/29 10:27:16;;;;;;;7.82;2.55;;;;;;;15.49;40.65;100334.50;4433933;32;20584;-75
2021/04/29 10:29:43;;;;;;;8.95;2.15;;;;;;;16.27;37.63;100322.69;4435757;32;20076;-75
2021/04/29 10:32:13;;;;;;;5.62;2.17;;;;;;;16.25;35.03;100333.75;4430227;32;20470;-77
2021/04/29 10:34:43;;;;;;;4.97;2.00;;;;;;;16.60;35.02;100333.91;4434139;32;20149;-75
2021/04/29 10:37:27;;;;;;;6.82;1.80;;;;;;;16.64;35.39;100332.44;4432653;32;20069;-75
2021/04/29 10:42:42;;;;;;;19.00;2.67;;;;;;;18.33;31.54;100340.31;3951789;32;15724658;-76
2021/04/29 10:45:10;;;;;;;5.47;2.70;;;;;;;18.33;31.54;100340.31;4431163;32;20385;-77
2021/04/29 10:47:37;;;;;;;5.80;1.77;;;;;;;17.04;32.84;100341.13;4428830;32;20464;-74
2021/04/29 10:52:53;;;;;;;8.48;2.92;;;;;;;15.60;37.21;100342.47;3981652;32;15026213;-76
2021/04/29 10:57:59;;;;;;;12.52;1.67;;;;;;;17.23;34.60;100341.69;3976671;32;15023081;-74
2021/04/29 11:00:27;;;;;;;6.10;2.33;;;;;;;17.23;34.60;100341.69;4438418;32;20064;-76
2021/04/29 11:05:36;;;;;;;4.62;2.03;;;;;;;19.15;29.13;100353.81;3974559;32;15022811;-76
2021/04/29 11:08:05;;;;;;;6.75;2.10;;;;;;;19.15;29.13;100353.81;4427837;32;20121;-76
2021/04/29 11:10:36;;;;;;;4.37;1.92;;;;;;;18.37;30.68;100349.47;4424401;32;20094;-75
2021/04/29 11:13:03;;;;;;;4.32;1.95;;;;;;;17.45;31.60;100342.03;4423193;32;20182;-76
2021/04/29 11:20:45;;;;;;;6.07;1.98;;;;;;;19.49;30.21;100338.53;3959058;32;15025093;-73
2021/04/29 11:23:14;;;;;;;3.87;1.70;;;;;;;19.49;30.21;100338.53;4398992;32;20547;-73
2021/04/29 11:25:40;;;;;;;7.15;2.90;;;;;;;19.14;29.46;100349.37;4413111;32;20136;-75
2021/04/29 11:28:07;;;;;;;2.17;1.50;;;;;;;18.90;29.91;100346.88;4409889;32;20038;-75
2021/04/29 11:30:33;;;;;;;3.83;2.00;;;;;;;18.31;30.47;100350.66;4410652;32;20100;-74
2021/04/29 11:33:01;;;;;;;2.58;1.95;;;;;;;17.78;30.77;100351.84;4408200;32;20086;-75
2021/04/29 11:35:29;;;;;;;2.37;1.90;;;;;;;17.14;31.19;100347.47;4411338;32;20112;-75
2021/04/29 11:37:56;;;;;;;10.88;2.22;;;;;;;16.63;32.93;100344.31;4409639;32;20463;-74
2021/04/29 11:40:25;;;;;;;5.12;1.92;;;;;;;16.38;33.09;100353.38;4411066;32;20025;-75
2021/04/29 11:42:55;;;;;;;6.05;2.00;;;;;;;16.08;34.14;100349.69;4410961;32;20042;-74
2021/04/29 11:45:23;;;;;;;6.07;1.90;;;;;;;15.52;35.19;100347.72;4410993;32;20059;-75
2021/04/29 11:53:12;;;;;;;7.72;2.00;;;;;;;15.84;35.93;100346.09;3979590;32;15023114;-75
2021/04/29 11:55:41;;;;;;;6.53;1.87;;;;;;;15.43;36.18;100346.97;4428070;32;20488;-76
2021/04/29 11:58:10;;;;;;;6.93;2.17;;;;;;;15.32;35.88;100347.50;4433705;32;20099;-75
2021/04/29 12:00:38;;;;;;;4.82;1.70;;;;;;;15.48;36.00;100344.28;4431961;32;20073;-76
2021/04/29 12:03:08;;;;;;;3.33;1.70;;;;;;;15.13;36.92;100348.06;4419957;32;20199;-76
2021/04/29 12:13:34;;;;;;;3.67;1.60;;;;;;;15.21;36.80;100360.59;3967836;32;15024076;-76
2021/04/29 12:16:05;;;;;;;5.40;1.98;;;;;;;15.08;37.23;100365.69;4433050;32;20376;-75
2021/04/29 12:18:31;;;;;;;24.80;2.28;;;;;;;14.79;37.47;100366.25;4429416;32;20068;-75
2021/04/29 12:20:58;;;;;;;4.72;1.87;;;;;;;14.56;38.25;100366.97;4435085;32;20061;-75